Strona główna
METAR-TAF:

METAR-TAF

Lotnisko :

Colmar, Francja

Szerokość geograficzna: 48-06-37N, Długość geograficzna: 7-21-33E, wysokość: 191 m

Aktualna obserwacja pogody

Raport powstał 15 minut temu, godzina 11:30 UTC
Wiatr 20 kt od zachodnio-południowy zachód, zmienny między południowo-południowy zachód i zachód
Temperatura 9°C
Wilgotność 46%
Ciśnienie 1004 hPa
Widzialność 10 km lub więcej

METAR: LFGA 281130Z AUTO 24020KT 210V270 9999 ///CB 09/M02 Q1004

czas: 12:45 (11:45 UTC)


TAF: brakujący

Obserwacja i prognoza pogody dla ponad 4000 lotnisk (raport METAR i TAF).

Dostępne stacje oznaczono żółtymi i czerwonymi punktami na mapie.

Najedź kursorem aby zobaczyć nazwę stacji.

Kliknij aby zobaczyć obserwacje i prognozy pogody.

Aby zmienić mapę: kliknij na zielony przycisk z czarnym krzyżykiem, aby powiększyć; na zielony przycisk z myślnikiem, aby pomniejszyć; na zielone strzałki, aby przejść do map sąsiednich.


METAR-TAF: